sim
Sign-in with your pilot id or email,
or register
Callsign
Passwort

Schedule Details

Flight Number: DLH2413
Departure: Stockholm Arlanda Airport (ESSA) at 08:25
Arrival: Munich Airport (EDDM) at 10:35
Route: Lufthansa Passenger Schedule. Enter filed route here before submitting Pirep.

Weather Information
Getting current METAR information for ESSA 261950Z 03010KT CAVOK 13/12 Q1009 NOSIG
Getting current METAR information for EDDM 261950Z 24017KT 9999 -RA BKN022 BKN035 07/04 Q1001 NOSIG

Schedule Frequency

Route Map